createdAt,value
2023-05-14T08:03:52.514Z,14.010033444816054
2023-05-14T08:08:55.684Z,15.0
2023-05-14T08:08:57.402Z,15.0
2023-05-14T08:08:59.212Z,14.0
2023-05-14T08:09:01.109Z,15.0
2023-05-14T08:09:02.918Z,16.0
2023-05-14T08:09:04.639Z,15.0
2023-05-14T08:09:57.265Z,17.0
2023-05-14T08:09:58.865Z,17.0
2023-05-14T08:25:21.270Z,12.866220735785953
2023-05-14T08:31:46.141Z,12.799331103678929
2023-05-14T08:38:08.276Z,13.193979933110368
2023-05-14T08:44:30.548Z,12.62541806020067
2023-05-14T08:51:48.660Z,12.698996655518394
2023-05-14T08:58:11.790Z,12.391304347826088
2023-05-14T09:04:33.609Z,12.387959866220736
2023-05-14T09:11:02.287Z,12.923076923076923
2023-05-14T09:17:25.990Z,12.05685618729097
2023-05-14T09:23:50.997Z,12.237458193979933
2023-05-14T09:32:59.009Z,12.143812709030101
2023-05-14T09:39:24.633Z,12.304347826086957
2023-05-14T09:45:47.017Z,11.80267558528428
2023-05-14T09:52:07.780Z,11.411371237458194
2023-05-14T09:58:29.453Z,11.08361204013378
2023-05-14T10:04:51.447Z,12.020066889632107
2023-05-14T10:11:42.683Z,12.20401337792642
2023-05-14T10:21:11.342Z,12.093645484949834
2023-05-14T10:33:10.751Z,12.866220735785953
2023-05-14T18:20:25.642Z,15.193979933110368
2023-05-14T18:27:46.102Z,14.68561872909699
2023-05-14T18:35:20.596Z,16.4247491638796
2023-05-14T18:41:44.136Z,17.785953177257525
2023-05-14T18:48:09.945Z,16.11371237458194
2023-05-14T18:56:02.052Z,15.68227424749164
2023-05-14T19:02:29.199Z,15.819397993311037
2023-05-14T19:12:03.863Z,15.324414715719064
2023-05-14T19:18:33.215Z,15.173913043478262
2023-05-14T19:25:11.765Z,17.1438127090301
2023-05-14T19:31:38.140Z,16.03344481605351
2023-05-14T19:37:58.974Z,16.59531772575251
2023-05-14T19:44:20.871Z,16.381270903010034
2023-05-14T19:51:45.844Z,17.401337792642142
2023-05-14T19:58:08.505Z,17.93979933110368
2023-05-14T20:04:29.826Z,17.036789297658864
2023-05-14T20:12:55.312Z,17.725752508361204
2023-05-14T20:24:30.422Z,20.05351170568562
2023-05-14T20:36:31.343Z,19.585284280936456
2023-05-14T21:07:07.425Z,19.127090301003346
2023-05-14T21:13:25.930Z,17.51839464882943
2023-05-14T21:19:44.149Z,17.933110367892976
2023-05-14T21:28:54.159Z,16.54515050167224
2023-05-14T21:35:39.580Z,17.68896321070234
2023-05-14T21:41:58.005Z,17.06020066889632
2023-05-14T21:50:40.867Z,17.11371237458194
2023-05-14T21:57:00.391Z,18.08026755852843
2023-05-14T22:03:19.863Z,20.043478260869566
2023-05-14T22:16:09.292Z,17.71571906354515
2023-05-14T22:27:47.364Z,19.622073578595316
2023-05-14T22:43:15.509Z,20.153846153846153
2023-05-14T22:54:22.340Z,20.040133779264213
2023-05-14T23:06:30.179Z,19.91973244147157
2023-05-14T23:15:28.222Z,20.899665551839465
2023-05-14T23:24:53.584Z,20.45484949832776
2023-05-14T23:31:12.714Z,20.351170568561873
2023-05-14T23:37:30.679Z,22.006688963210703
2023-05-14T23:48:22.356Z,21.240802675585286
2023-05-14T23:54:40.834Z,22.34113712374582
